24h Messdaten per 21.05.2019 um 21:20:59

Datum Zeit Luftdruck Temp Balkon Feuchte Balkon Temp Strasse Feuchte Strasse Wind km/h Wind Boe Wind aus (Grad) Regen l/15min Licht Lux Sonne h/Monat
21.05.19 21:20:59 1007 11.5 52 13.5 95
21.05.19 21:15:59 1007 11.6 52
21.05.19 21:11:59 1007 11.7 52 13.5 96
21.05.19 21:06:00 1007 11.8 51 13.5 96
21.05.19 21:01:00 1007 11.8 51 13.6 96
21.05.19 20:56:00 1007 11.9 51 13.7 96
21.05.19 20:50:59 1007 12.1 52 13.8 96
21.05.19 20:45:59 1007 12.2 51 13.9 96
21.05.19 20:40:59 1007 12.3 50 13.9 96
21.05.19 20:36:00 1006 12.5 48 13.9 96
21.05.19 20:31:00 1006 12.7 47
21.05.19 20:26:00 1006 12.8 46 14.0 97 0.0
21.05.19 20:21:00 1006 13.3 44 14.0 97 0.0
21.05.19 20:16:00 1006 13.5 42 14.0 97 0.0
21.05.19 20:11:00 1006 13.7 44 14.0 97 0.0
21.05.19 20:06:00 1006 13.5 45 14.0 97 0.0
21.05.19 20:01:00 1006 13.3 44 14.0 97 0.0
21.05.19 19:56:00 1006 13.2 45 14.0 97 0.0
21.05.19 19:51:00 1006 13.3 44 14.0 97 0.0
21.05.19 19:46:00 1006 13.7 42 14.0 97 0.0
21.05.19 19:41:00 1006 14.2 39 13.9 98 0.0
21.05.19 19:36:00 1006 14.5 39 13.8 98 0.0
21.05.19 19:31:00 1006 14.5 39 13.7 98 0.0
21.05.19 19:26:00 1006 14.1 39 13.6 99 1.1 2.5 337.5 0.0
21.05.19 19:21:00 1006 14.6 39 13.7 99 0.7 2.5 112.5 0.0
21.05.19 19:16:00 1006 14.6 39 13.7 99 0.7 0.0 112.5 0.0
21.05.19 19:11:00 1006 13.6 50 13.7 99 1.1 1.8 45 0.0
21.05.19 19:06:00 1006 12.9 53 13.5 99 1.4 1.8 67.5 0.0
21.05.19 19:01:00 1006 12.5 54 13.4 99 0.7 2.9 315 0.0
21.05.19 18:56:00 1006 12.3 58 13.2 99 0.4 2.5 337.5 0.0
21.05.19 18:51:00 1006 12.1 61 13.2 99 0.4 0.0 90 0.0
21.05.19 18:46:00 1006 11.9 62 13.1 99 0.7 0.0 45 0.0
21.05.19 18:41:00 1006 11.7 64 12.9 99 1.1 0.0 67.5 0.0
21.05.19 18:36:00 1006 11.3 66 12.9 99 1.4 3.2 45 0.0
21.05.19 18:31:00 1006 11.3 66 12.8 99 1.1 2.9 67.5 0.0
21.05.19 18:26:00 1006 11.2 67 12.8 99 0.4 3.2 67.5 0.0
21.05.19 18:21:00 1006 11.3 68 12.7 99 0.7 1.4 112.5 0.0
21.05.19 18:16:00 1006 11.2 68 12.7 99 0.7 1.4 180 0.0
21.05.19 18:11:00 1006 11.0 68 12.7 99 0.7 0.0 22.5 0.0
21.05.19 18:06:00 1006 10.9 68 12.7 99 1.1 3.6 112.5 0.0
21.05.19 18:01:00 1006 11.1 69 12.7 99 0.7 0.0 22.5 0.0
21.05.19 17:56:00 1006 11.1 69 12.7 99 0.7 0.0 90 0.0
21.05.19 17:51:00 1006 10.9 69 12.6 99 1.1 1.8 112.5 0.0
21.05.19 17:46:00 1006 10.8 69 12.7 99 1.4 1.8 22.5 0.0
21.05.19 17:41:00 1006 10.8 69 12.7 99 1.8 2.2 22.5 0.0
21.05.19 17:36:00 1006 10.5 69 12.6 99 1.4 4.7 45 0.0
21.05.19 17:31:00 1006 10.5 69 12.6 99 1.4 0.0 67.5 0.0
21.05.19 17:26:00 1006 10.4 69 12.5 99 1.4 3.6 202.5 0.0
21.05.19 17:21:00 1006 10.4 68 12.5 99 1.4 2.5 0 0.0
21.05.19 17:16:00 1006 10.4 68 12.5 99 1.1 1.8 67.5 0.0
21.05.19 17:11:00 1006 10.4 68 12.5 99 0.7 1.4 67.5 0.0
21.05.19 17:06:00 1006 10.3 68 12.4 99 0.4 1.8 67.5 0.0
21.05.19 17:01:00 1006 10.3 68 12.4 99 0.0 1.8 22.5 0.0
21.05.19 16:56:00 1006 10.3 68 12.4 99 0.0 0.0 45 0.0
21.05.19 16:51:00 1006 10.3 68 0.4 1.4 135 0.0
21.05.19 16:46:00 1006 10.3 68 12.4 99 0.4 0.0 180 0.0
21.05.19 16:41:00 1006 10.2 68 12.4 99 0.7 1.8 22.5 0.0
21.05.19 16:36:00 1006 10.2 67 12.3 99 0.4 0.0 315 0.0
21.05.19 16:31:00 1006 10.1 67 12.3 99 0.0 0.0 112.5 0.0
21.05.19 16:26:00 1006 10.1 66 12.3 99 0.0 0.0 45 0.0
21.05.19 16:21:01 1006 10.2 66 12.3 99 0.0 0.0 180 0.0
21.05.19 16:16:01 1006 10.2 66 0.0 0.0 45 0.0
21.05.19 16:11:01 1006 10.3 66 12.3 99 0.0 0.0 67.5 0.0
21.05.19 16:06:00 1006 10.2 65 12.2 99 0.0 0.0 67.5 0.0
21.05.19 16:01:00 1006 10.2 65 12.2 99 0.0 0.0 90 0.0
21.05.19 15:56:00 1006 10.1 65 12.2 99 0.0 0.0 90 0.0
21.05.19 15:51:00 1006 10.1 65 12.1 99 0.0 0.0 45 0.0
21.05.19 15:46:00 1005 10.1 65 12.1 99 0.0 0.0 45 0.0
21.05.19 15:41:00 1005 10.0 65 12.1 99 0.4 0.0 270 0.0
21.05.19 15:36:01 1005 10.0 65 12.0 99 0.7 0.0 0 0.0
21.05.19 15:31:01 1005 10.0 65 12.0 99 0.7 0.0 135 0.0
21.05.19 15:26:01 1005 10.0 65 11.9 99 1.1 0.0 112.5 0.0
21.05.19 15:21:00 1005 9.9 65 11.9 99 1.4 2.9 135 0.0
21.05.19 15:16:00 1005 9.9 65 11.9 99 1.4 3.2 90 0.0
21.05.19 15:11:00 1005 9.9 66 12.0 99 1.1 2.2 135 0.0
21.05.19 15:06:01 1005 9.9 66 12.0 99 1.1 4.3 112.5 0.0
21.05.19 15:01:01 1005 9.8 66 11.9 99 1.4 1.8 112.5 0.0
21.05.19 14:56:01 1005 9.8 66 11.9 99 1.1 2.5 22.5 0.0
21.05.19 14:51:00 1005 9.8 66 11.9 99 0.7 4.0 112.5 0.0
21.05.19 14:46:00 1005 9.8 66 11.8 99 0.4 0.0 90 0.0
21.05.19 14:41:00 1005 9.8 66 11.9 99 0.7 0.0 315 0.0
21.05.19 14:36:00 1005 9.8 66 11.8 99 1.1 0.0 135 0.0
21.05.19 14:31:00 1005 9.7 66 11.8 99 1.4 0.0 135 0.0
21.05.19 14:26:00 1005 9.8 66 1.4 2.2 90 0.0
21.05.19 14:21:00 1005 9.7 67 11.8 99 1.8 3.2 157.5 0.0
21.05.19 14:16:00 1005 9.7 67 11.8 99 2.5 4.7 135 0.0
21.05.19 14:11:00 1005 9.7 68 11.8 99 2.2 5.8 112.5 0.0
21.05.19 14:06:00 1005 9.7 68 11.8 99 2.2 2.9 112.5 0.0
21.05.19 14:01:00 1005 9.7 69 11.8 99 2.5 2.5 45 0.0
21.05.19 13:56:00 1005 9.7 70 11.7 99 2.9 4.3 270 0.0
21.05.19 13:51:00 9.6 70 11.7 99 2.9 3.2 22.5 0.0
21.05.19 13:46:00 1005 9.6 71 11.7 99 3.2 3.6 270 0.0
21.05.19 13:41:00 1005 9.5 72 11.7 99 2.5 7.2 112.5 0.0
21.05.19 13:36:01 1005 9.5 72 11.6 99 2.9 2.2 90 0.0
21.05.19 13:31:01 1005 9.5 72 11.6 99 2.9 1.8 135 0.0
21.05.19 13:26:01 1005 9.5 73 11.6 99 3.6 2.5 90 0.0
21.05.19 13:21:00 1005 9.4 74 11.6 99 4.0 0.0 67.5 0.0
21.05.19 13:16:00 1005 9.4 74 11.6 99 3.6 5.8 45 0.0
21.05.19 13:11:00 1005 9.4 74 11.6 99 2.5 5.4 112.5 0.0
21.05.19 13:06:01 1004 9.4 75 11.5 99 2.5 6.8 67.5 0.0
21.05.19 13:01:01 1004 9.3 75 11.5 99 3.6 3.2 135 0.0
21.05.19 12:56:01 1004 9.3 75 11.5 99 4.0 2.2 135 0.0
21.05.19 12:51:00 1004 9.2 75 11.4 99 3.6 6.5 135 0.0
21.05.19 12:46:00 1004 9.2 75 11.5 99 3.6 5.4 135 0.7
21.05.19 12:41:00 1004 9.2 76 11.5 99 3.6 3.6 180 0.0
21.05.19 12:36:01 1004 9.2 75 11.4 99 4.7 5.8 112.5 0.0
21.05.19 12:31:01 1004 9.1 75 11.4 99 4.0 6.5 90 0.0
21.05.19 12:26:01 1004 9.2 76 11.4 99 3.2 4.7 67.5 0.0
21.05.19 12:21:00 1004 9.2 76 11.4 99 4.0 7.6 45 0.0
21.05.19 12:16:00 1004 9.2 76 11.4 99 3.6 3.6 22.5 0.0
21.05.19 12:11:00 1004 9.3 77 11.4 99 3.6 9.0 112.5 0.0
21.05.19 12:06:00 1004 9.2 77 11.4 99 2.5 1.8 22.5 0.0
21.05.19 12:01:00 1004 9.2 77 11.4 99 2.2 5.0 45 0.0
21.05.19 11:56:00 1004 9.2 77 11.4 99 2.5 2.5 45 0.0
21.05.19 11:51:00 1004 9.2 77 11.4 99 3.6 3.6 67.5 0.0
21.05.19 11:46:00 1004 9.2 77 3.2 3.2 112.5 0.0
21.05.19 11:41:00 1003 9.2 77 2.9 4.0 112.5 0.0
21.05.19 11:36:02 1003 9.3 78 2.9 3.6 90 0.0
21.05.19 11:31:02 1003 9.2 77 11.4 99 2.9 0.0 22.5 0.0
21.05.19 11:26:01 1003 9.3 78 11.4 99 2.9 1.4 67.5 0.0
21.05.19 11:21:00 1003 9.3 77 11.4 99 2.9 1.8 157.5 0.0
21.05.19 11:16:00 1003 9.2 78 11.5 99 2.5 4.7 90 0.0
21.05.19 11:11:00 1003 9.3 78 11.6 99 2.2 5.0 67.5 0.0
21.05.19 11:06:01 1003 9.3 78 11.5 99 2.2 2.9 22.5 0.7
21.05.19 11:01:01 1003 9.3 79 11.5 99 2.9 4.3 135 0.0
21.05.19 10:56:01 11.5 99 3.2 5.4 135 0.0
21.05.19 10:51:00 1003 9.3 79 11.5 99 3.2 4.0 157.5 0.0
21.05.19 10:46:00 1003 9.3 80 11.5 99 3.2 2.2 67.5 0.0
21.05.19 10:41:00 1003 9.4 80 11.5 99 4.3 2.5 112.5 0.0
21.05.19 10:36:02 1003 9.3 81 11.5 99 4.7 6.1 112.5 0.0
21.05.19 10:31:02 1003 9.3 81 11.5 99 3.6 6.5 67.5 0.0
21.05.19 10:26:01 1003 9.3 81 11.4 99 2.9 5.8 135 0.0
21.05.19 10:21:01 9.3 81 11.5 99 2.9 4.7 157.5 0.0
21.05.19 10:16:01 1003 9.3 82 11.5 99 3.2 4.0 112.5 0.0
21.05.19 10:11:01 1003 9.3 82 11.4 99 3.6 4.0 112.5 0.7
21.05.19 10:06:00 1003 9.3 82 11.5 99 4.3 10.8 112.5 0.0
21.05.19 10:01:00 1003 9.3 83 11.5 99 4.0 7.9 112.5 0.0
21.05.19 09:56:00 1003 9.3 82 11.5 99 4.0 2.5 22.5 0.0
21.05.19 09:51:01 1003 9.3 82 11.5 99 4.7 5.8 67.5 0.0
21.05.19 09:46:01 1003 9.3 82 11.5 99 4.0 3.2 202.5 0.0
21.05.19 09:41:01 1003 9.4 82 11.5 99 2.9 9.0 112.5 0.0
21.05.19 09:36:00 1003 9.3 81 11.5 99 2.9 4.7 112.5 0.0
21.05.19 09:31:00 1003 9.3 82 11.5 99 4.3 6.5 135 0.0
21.05.19 09:26:00 1002 9.3 81 11.6 99 5.0 8.3 112.5 0.0
21.05.19 09:21:00 1002 9.3 81 11.6 99 5.0 4.7 112.5 0.0
21.05.19 09:16:00 1002 11.6 99 5.0 6.5 67.5 0.0
21.05.19 09:11:00 1002 9.3 81 11.6 99 4.3 8.3 22.5 0.0
21.05.19 09:06:00 1002 9.3 81 11.6 99 4.7 13.7 90 0.0
21.05.19 09:01:00 1002 9.3 81 4.7 5.4 247.5 0.0
21.05.19 08:56:00 1002 9.4 81 11.6 99 4.3 6.5 135 0.0
21.05.19 08:51:01 1002 9.3 81 11.6 99 3.6 6.1 112.5 0.0
21.05.19 08:46:01 1002 9.3 81 11.6 99 3.6 6.8 112.5 0.0
21.05.19 08:41:01 1002 9.3 81 11.6 99 4.3 3.2 112.5 0.0
21.05.19 08:36:01 1002 9.3 81 11.6 99 4.7 7.6 45 0.0
21.05.19 08:31:01 1002 9.3 81 11.6 99 4.7 9.7 90 0.0
21.05.19 08:26:01 1001 9.3 81 11.6 99 4.7 5.8 180 0.0
21.05.19 08:21:01 1001 9.3 81 11.6 99 5.0 4.3 22.5 0.0
21.05.19 08:16:01 1001 9.3 81 11.6 99 5.8 7.9 90 0.0
21.05.19 08:11:01 1001 9.3 81 11.6 99 5.0 5.8 112.5 0.0
21.05.19 08:06:01 1001 9.3 80 11.7 99 4.3 10.1 112.5 0.0
21.05.19 08:01:01 1001 9.3 80 11.7 99 4.3 2.9 67.5 0.0
21.05.19 07:56:01 1001 9.3 79 11.6 99 4.7 5.8 112.5 0.0
21.05.19 07:51:01 1001 9.3 79 11.6 99 4.7 6.5 112.5 0.0
21.05.19 07:46:01 1001 9.2 79 11.6 99 4.7 5.4 135 0.0
21.05.19 07:41:01 1001 9.2 78 11.6 99 4.7 5.0 337.5 0.0
21.05.19 07:36:01 1001 9.2 78 11.6 99 5.0 10.4 112.5 0.0
21.05.19 07:31:01 1001 9.2 77 4.7 6.1 112.5 0.0
21.05.19 07:26:01 1001 9.2 77 11.6 99 4.0 6.5 112.5 0.0
21.05.19 07:21:01 1001 9.2 76 11.6 99 4.0 2.9 135 0.0
21.05.19 07:16:01 1001 9.2 76 11.6 99 4.7 5.4 112.5 0.0
21.05.19 07:11:01 1001 9.2 76 11.6 99 5.4 6.1 67.5 0.7
21.05.19 07:06:01 1001 9.3 75 11.6 99 4.7 3.2 112.5 0.0
21.05.19 07:01:01 1001 9.3 75 11.6 99 4.0 6.8 225 0.7
21.05.19 06:56:01 1001 9.3 75 11.6 99 4.7 4.7 22.5 0.7
21.05.19 06:51:01 9.3 75 11.6 99 4.7 7.2 67.5 0.0
21.05.19 06:46:01 1001 9.3 75 11.6 99 4.3 3.6 67.5 0.0
21.05.19 06:41:01 1001 11.7 99 4.7 7.6 112.5 0.0
21.05.19 06:36:02 1001 9.3 75 11.7 99 4.7 2.5 45 0.0
21.05.19 06:31:01 1001 9.4 75 11.7 99 5.4 6.1 112.5 0.0
21.05.19 06:26:01 1001 9.4 74 11.7 99 6.1 3.2 315 0.0
21.05.19 06:21:01 1001 9.4 74 11.7 99 6.1 9.0 22.5 0.0
21.05.19 06:16:01 1001 9.3 74 4.7 5.0 90 0.0
21.05.19 06:11:01 1001 9.3 74 11.7 99 3.2 7.9 112.5 0.0
21.05.19 06:06:01 1001 9.4 74 11.7 99 3.6 2.5 112.5 0.0
21.05.19 06:01:01 1001 3.6 5.0 45 0.0
21.05.19 05:56:01 1001 9.4 74 11.8 99 2.9 3.2 112.5 0.0
21.05.19 05:51:02 1001 9.4 74 11.8 99 3.2 4.7 112.5 0.0
21.05.19 05:46:02 1001 9.4 74 11.8 99 3.2 13.7 112.5 0.0
21.05.19 05:41:02 1001 9.5 74 11.9 99 3.2 3.2 67.5 0.0
21.05.19 05:36:02 1001 9.5 73 11.9 99 3.2 7.6 180 0.0
21.05.19 05:31:02 1001 9.5 73 11.9 99 3.6 7.2 67.5 0.0
21.05.19 05:26:01 1001 9.5 73 11.9 99 3.2 9.0 90 0.0
21.05.19 05:21:02 1001 9.5 73 11.9 99 4.3 2.9 22.5 0.0
21.05.19 05:16:02 1001 11.9 99 4.3 1.8 0 0.0
21.05.19 05:11:02 1001 9.6 73 11.9 99 4.0 5.0 112.5 0.0
21.05.19 05:06:01 1001 9.5 73 11.9 99 3.6 4.3 135 0.0
21.05.19 05:01:01 1001 9.5 72 11.9 99 4.0 6.1 22.5 0.0
21.05.19 04:56:01 1001 9.5 72 11.9 99 4.0 4.7 90 0.0
21.05.19 04:51:01 1000 9.5 72 11.9 99 4.0 5.0 135 0.0
21.05.19 04:46:01 1000 9.5 72 12.0 99 4.0 6.5 112.5 0.0
21.05.19 04:41:01 1000 9.5 72 12.0 99 2.9 4.7 180 0.0
21.05.19 04:36:01 1000 9.5 72 12.0 99 2.9 5.0 90 0.0
21.05.19 04:31:01 1000 9.5 72 12.0 99 3.6 2.9 112.5 0.0
21.05.19 04:26:01 1000 9.5 72 12.0 99 4.0 4.7 90 0.0
21.05.19 04:21:01 1000 9.6 71 12.0 99 4.0 7.6 90 0.0
21.05.19 04:16:01 1000 9.6 71 12.1 99 4.7 4.0 112.5 0.0
21.05.19 04:11:01 1000 9.6 71 12.1 99 3.6 10.8 135 0.0
21.05.19 04:06:02 1000 9.6 71 12.1 99 3.6 3.2 22.5 0.0
21.05.19 04:01:02 1000 9.6 71 12.1 99 4.0 4.0 135 0.0
21.05.19 03:56:01 1000 9.6 71 12.1 99 4.7 9.0 135 0.0
21.05.19 03:51:02 1000 9.7 71 12.1 99 4.7 2.5 157.5 0.0
21.05.19 03:46:02 1000 9.7 71 12.1 99 4.3 7.9 112.5 0.0
21.05.19 03:41:02 1000 9.7 70 12.1 99 4.3 7.6 112.5 0.0
21.05.19 03:36:02 1001 9.7 70 12.1 99 4.0 2.9 67.5 0.0
21.05.19 03:31:01 1001 9.7 70 12.2 99 4.0 5.4 135 0.0
21.05.19 03:26:01 1001 9.7 70 12.3 98 3.6 0.0 157.5 0.0
21.05.19 03:21:01 1001 9.7 70 12.3 98 4.0 10.1 22.5 0.0
21.05.19 03:16:01 1001 9.7 70 12.3 98 2.9 3.2 270 0.0
21.05.19 03:11:01 1001 9.8 70 12.4 98 4.0 4.3 67.5 0.0
21.05.19 03:06:01 1001 12.4 98 4.0 2.9 112.5 0.0
21.05.19 03:01:01 1001 9.9 70 12.5 99 4.7 13.7 112.5 0.0
21.05.19 02:56:01 1001 10.0 70 12.5 99 4.7 0.0 67.5 0.0
21.05.19 02:49:59 1001 10.0 70 12.5 99 4.3 5.4 22.5 0.0
21.05.19 02:44:59 1001 10.1 70 12.6 99 4.7 2.9 180 0.0
21.05.19 02:39:59 1001 10.0 70 12.5 99 4.7 2.9 180 0.0
21.05.19 02:35:01 1001 10.0 70 12.5 99 4.3 3.2 90 0.0
21.05.19 02:30:00 1001 10.0 70 12.5 99 4.7 7.2 135 0.0
21.05.19 02:25:00 1001 10.1 70 12.5 99 4.7 7.2 135 0.0
21.05.19 02:19:59 1001 12.6 99 4.7 10.4 90 0.0
21.05.19 02:14:59 1001 10.2 71 12.8 98 4.0 5.8 67.5
21.05.19 02:10:59 1001 10.4 71 12.8 98 4.0 5.8 67.5 0.0
21.05.19 02:05:01 1001 12.9 98 4.0 4.3 112.5 0.0
21.05.19 02:00:01 1000 10.5 71 13.0 98 4.7 10.4 112.5 0.0
21.05.19 01:55:00 1000 10.5 71 13.0 98 4.7 10.4 112.5 0.0
21.05.19 01:49:59 1000 10.6 71 13.0 98 4.7 4.7 112.5 0.0
21.05.19 01:44:59 1000 10.7 71 13.1 98 4.7 6.5 112.5
21.05.19 01:40:59 1000 10.7 70 13.1 98 4.7 6.5 112.5 0.0
21.05.19 01:34:59 1001 10.7 70 13.1 98 4.7 11.9 90 0.0
21.05.19 01:29:59 1001 10.7 70 13.1 98 4.0 5.8 90 0.0
21.05.19 01:24:59 1001 10.7 70 13.1 98 4.0 5.8 90 0.0
21.05.19 01:19:59 1000 10.7 70 13.2 98 3.6 2.2 135 0.0
21.05.19 01:14:59 1000 10.7 70 13.2 98 2.9 3.2 67.5
21.05.19 01:10:59 1000 10.8 70 13.3 98 2.9 3.2 67.5 0.0
21.05.19 01:05:00 1000 10.7 70 13.3 98 3.2 5.8 90 0.0
21.05.19 01:00:00 1000 10.8 70 2.9 3.6 157.5 0.0
21.05.19 00:55:00 1000 10.8 70 13.3 97 2.9 3.6 157.5 0.0
21.05.19 00:50:00 1000 10.8 70 13.4 97 2.9 2.2 157.5 0.0
21.05.19 00:45:00 1000 10.9 69 13.4 97 3.2 5.4 112.5 0.0
21.05.19 00:40:00 1000 10.9 69 13.4 97 3.2 5.4 112.5 0.0
21.05.19 00:35:00 1000 11.0 69 13.5 97 2.9 5.0 112.5 0.0
21.05.19 00:30:00 1000 11.0 69 13.5 97 4.0 4.7 0 0.0
21.05.19 00:25:00 11.0 69 13.6 96 4.0 4.7 0 0.0
21.05.19 00:20:00 1000 11.0 69 13.6 96 4.0 6.5 112.5 0.0
21.05.19 00:15:00 1000 11.0 68 13.6 96 4.0 2.9 157.5 0.0
21.05.19 00:10:00 1000 11.0 68 13.7 96 4.0 2.9 157.5 0.0
21.05.19 00:05:00 1000 11.0 68 13.7 96 4.7 5.0 45 0.0
21.05.19 00:00:00 1001 11.0 67 13.8 96 6.1 2.9 67.5 0.0
20.05.19 23:55:00 1001 11.1 67 13.8 95 6.1 2.9 67.5 0.0
20.05.19 23:50:00 1001 11.1 66 13.9 95 4.7 8.3 180 0.0
20.05.19 23:45:00 1001 11.2 65 13.9 95 3.2 4.7 112.5 0.0
20.05.19 23:40:00 1001 11.2 65 13.9 95 3.2 4.7 112.5 0.0
20.05.19 23:35:01 1001 11.2 64 3.6 2.5 67.5 0.0
20.05.19 23:30:00 1000 11.2 64 3.6 5.4 67.5 0.0
20.05.19 23:25:00 1000 11.3 63 14.0 94 3.6 5.4 67.5 0.0
20.05.19 23:20:00 1000 11.4 62 14.0 94 4.7 9.7 135 0.0
20.05.19 23:15:00 1000 11.4 62 14.0 94 3.6 2.9 112.5 0.0
20.05.19 23:10:00 1000 11.4 61 14.0 94 3.6 2.9 112.5
20.05.19 23:05:01 1000 11.5 61 14.0 94 4.0 3.6 45 0.0
20.05.19 23:00:00 1001 11.5 60 14.0 94 4.0 9.0 112.5 0.0
20.05.19 22:55:00 1000 11.6 57 14.0 94 4.0 9.0 112.5 0.0
20.05.19 22:50:00 1001 11.6 57 14.0 94 4.0 6.1 157.5 0.0
20.05.19 22:45:00 1001 11.7 56 14.0 93 4.0 5.8 67.5 0.0
20.05.19 22:40:00 1001 11.7 56 14.0 93 4.0 5.8 67.5
20.05.19 22:35:01 1000 11.7 57 14.1 93 4.3 2.2 225 0.0
20.05.19 22:30:00 1000 11.7 57 14.1 93 4.0 3.6 112.5 0.0
20.05.19 22:25:00 11.7 57 14.1 93 4.0 3.6 112.5 0.0
20.05.19 22:20:00 1000 11.7 58 14.2 93 4.7 7.6 112.5 0.0
20.05.19 22:15:00 1000 11.7 57 14.2 93 3.6 8.6 112.5 0.0
20.05.19 22:10:00 1000 11.7 56 14.2 93 3.6 8.6 112.5
20.05.19 22:05:01 1000 11.9 55 14.3 93 3.2 6.5 112.5 0.0
20.05.19 22:00:00 1000 14.3 92 2.9 5.4 112.5 0.0
20.05.19 21:55:00 1000 12.0 53 14.4 92 2.9 5.4 112.5 0.0
20.05.19 21:50:00 1000 12.0 52 14.3 92 2.9 3.6 67.5 0.0
20.05.19 21:45:00 1000 12.1 52 14.3 93 3.2 5.8 45 0.0
20.05.19 21:40:00 1000 12.1 52 14.3 92 3.2 5.8 45 0.0
20.05.19 21:35:01 1000 12.1 52 14.3 93 4.7 7.6 45 0.0
20.05.19 21:30:01 1000 12.1 53 14.3 93 4.0 3.2 67.5 0.0
20.05.19 21:25:00 1000 12.0 54 14.3 92 4.0 3.2 67.5
Index
© 2002-2012 Thomas Dreßler
Alle Rechte vorbehalten
letzte Scriptänderung 12.11.2012